Bradford, Pennsylvania
Current Conditions -  °F | °C
As of 1:53 AM on Wednesday 22 Oct 2014 (Local Time) from KBFD Reporting Station
Overcast Overcast  
Wind Chill: 39°   Ceiling: 300
Heat Index: 44°   Visibility: 10mi
Dew Point: 41°   Wind: 10mph
Humidity: 89%   Direction: 30°NNE
Pressure: 30.02"   Gusts: NA
Location:  41.96°N, 78.65°W
Report Text: KBFD 220553Z AUTO 03009KT 10SM OVC003 07/05 A3002 RMK AO2 SLP169 60000 T00670050 10083 20067 51004
Loading
Personal Weather Stations






























Interactive Weather Map
Tropical Storm Tracking
New forecast layout! Learn more

10-Day Weather Forecast

Advertisements
Track Severe Weather on mobile